Aeroporto :
LOGIN :

Iscrizione | Disclaimer

   EN    FR    IT 

 










Sommario :    VFR   VFR Marginale   IFR   IFR Intensivo   IFR Molto Intensivo
Visibilità : 
Base nubi : 
>= 8 km
>= 3000ft
5 / 8 km
1000 / 3000 ft
1500m / 5 km
500 / 1000 ft
800 / 1500m
200 / 500 ft
< 800m
< 200 ft
Simboli :   Temporali  Nebbia  Neve Forte  Precipitazioni Forti  Vento > 20 kt
SIGMETs :   Varie  Temporali  Ghiacco  Turbolenza  Onda orograficha  Ceneri Vulcaniche






- Altitudine del aeroporto : 38 ft
- Codice IATA : BOH


EGHH - Bournemouth

ULTIMO METAR :
  • 061120Z 25016KT 9000 -RA SCT007 BKN008 13/12 Q1006

METARs OBSOLETI :
  • 061050Z 25018KT 6000 -DZ BKN008 13/12 Q1007
  • 061020Z 24019G32KT 6000 -DZ BKN009 13/12 Q1007
  • 060950Z 25020G32KT 9999 BKN009 13/11 Q1007
  • 060920Z 25019G29KT 9999 BKN010 13/12 Q1007
  • 060850Z 24018KT 6000 -DZ BKN008 12/12 Q1007

TAF TAF EGHH
Valido dal 06 a 12 ore il 06 a 21 ore UTC


061059Z 0612/0621 22012KT 9999 BKN012
BECMG 0612/0615 SCT020
PROB40
TEMPO 0612/0617 24016G26KT
TEMPO 0615/0617 7000 SHRA
PROB30
TEMPO 0615/0617 4000 +SHRA BKN014
ATIS : +44 1202 364 151
Met : +44 1202 364 158 (TAF)



MetMap, La meteo Aeronautica in un colpo d'occhio ! - Copyright ORBIFLY Dicembre 2007 - Disclaimer

ORBIFLY MET'MAP TEAM :

Programmazione e sviluppo : Alexandra Zaïnal
Concezione : Baudouin d'Aumeries
Aiuto per la programmazione : Marc-Olivier Méhu
Supporto tecnico e logistico : Manuel Goepfert
Aiuto per la traduzione : Arnaldo La Scala

Contatto : metmap@orbifly.com




FONTI E CREDITI :

   NOAA